createdAt,value
2023-04-09T00:02:20.273Z,101247.09
2023-04-09T00:04:48.329Z,101247.34
2023-04-09T00:07:15.891Z,101253.16
2023-04-09T00:09:43.356Z,101249.91
2023-04-09T00:12:11.575Z,101253.50
2023-04-09T00:14:39.199Z,101255.34
2023-04-09T00:17:06.637Z,101256.50
2023-04-09T00:19:34.481Z,101252.75
2023-04-09T00:22:02.817Z,101252.59
2023-04-09T00:24:30.341Z,101251.47
2023-04-09T00:26:58.019Z,101249.44
2023-04-09T00:29:25.771Z,101259.06
2023-04-09T00:31:53.311Z,101226.25
2023-04-09T00:34:21.098Z,101257.28
2023-04-09T00:36:48.669Z,101252.31
2023-04-09T00:39:16.293Z,101255.75
2023-04-09T00:41:43.949Z,101257.28
2023-04-09T00:44:11.700Z,101255.00
2023-04-09T00:46:39.823Z,101254.31
2023-04-09T00:49:07.813Z,101249.66
2023-04-09T00:51:36.835Z,101248.78
2023-04-09T00:54:04.419Z,101206.63
2023-04-09T00:56:33.118Z,101253.00
2023-04-09T00:59:01.032Z,101214.97
2023-04-09T01:01:28.582Z,101252.84
2023-04-09T01:03:57.163Z,101246.63
2023-04-09T01:06:52.743Z,101248.53
2023-04-09T01:09:37.724Z,101245.50
2023-04-09T01:12:17.713Z,101254.00
2023-04-09T01:15:08.656Z,101247.47
2023-04-09T01:17:42.205Z,101243.16
2023-04-09T01:20:48.154Z,101250.22
2023-04-09T01:23:41.004Z,101241.41
2023-04-09T01:26:15.223Z,101244.94
2023-04-09T01:28:46.631Z,101247.94
2023-04-09T01:31:20.120Z,101239.81
2023-04-09T01:33:47.892Z,101249.81
2023-04-09T01:36:16.760Z,101248.19
2023-04-09T01:38:46.148Z,101246.34
2023-04-09T01:41:17.723Z,101253.22
2023-04-09T01:43:45.942Z,101257.09
2023-04-09T01:46:13.920Z,101194.91
2023-04-09T01:48:43.485Z,101246.28
2023-04-09T01:51:14.217Z,101246.09
2023-04-09T01:53:42.481Z,101250.44
2023-04-09T01:56:10.273Z,101257.66
2023-04-09T01:58:38.481Z,101251.34
2023-04-09T02:01:12.120Z,101264.53
2023-04-09T02:03:52.965Z,101258.56
2023-04-09T02:06:42.280Z,101254.28
2023-04-09T02:09:12.003Z,101268.22
2023-04-09T02:11:42.215Z,101257.66
2023-04-09T02:14:12.458Z,101269.84
2023-04-09T02:16:40.772Z,101213.28
2023-04-09T02:19:08.489Z,101259.63
2023-04-09T02:21:36.087Z,101262.88
2023-04-09T02:24:04.022Z,101259.03
2023-04-09T02:26:31.507Z,101247.44
2023-04-09T02:28:59.075Z,101249.03
2023-04-09T02:31:26.897Z,101247.94
2023-04-09T02:33:54.778Z,101248.88
2023-04-09T02:36:22.557Z,101244.72
2023-04-09T02:38:50.528Z,101247.47
2023-04-09T02:41:20.043Z,101255.38
2023-04-09T02:43:47.916Z,101250.03
2023-04-09T02:46:15.695Z,101244.88
2023-04-09T02:48:43.201Z,101249.75
2023-04-09T02:51:11.078Z,101240.78
2023-04-09T02:53:40.770Z,101205.34
2023-04-09T02:56:08.724Z,101239.09
2023-04-09T02:58:36.277Z,101239.69
2023-04-09T03:01:04.229Z,101239.69
2023-04-09T03:03:32.243Z,101189.91
2023-04-09T03:05:59.914Z,101240.09
2023-04-09T03:08:28.356Z,101244.84
2023-04-09T03:10:55.828Z,101237.09
2023-04-09T03:13:23.467Z,101232.56
2023-04-09T03:15:53.104Z,101230.06
2023-04-09T03:18:20.607Z,101235.25
2023-04-09T03:20:48.091Z,101230.56
2023-04-09T03:23:16.653Z,101242.91
2023-04-09T03:25:44.556Z,101239.00
2023-04-09T03:28:12.439Z,101246.47
2023-04-09T03:30:40.694Z,101195.44
2023-04-09T03:33:08.359Z,101246.53
2023-04-09T03:35:36.848Z,101243.03
2023-04-09T03:38:04.654Z,101242.47
2023-04-09T03:40:33.527Z,101248.66
2023-04-09T03:43:00.941Z,101252.03
2023-04-09T03:45:29.480Z,101254.56
2023-04-09T03:47:59.650Z,101242.12
2023-04-09T03:50:27.926Z,101255.38
2023-04-09T03:52:55.874Z,101253.38
2023-04-09T03:55:23.573Z,101247.25
2023-04-09T03:57:52.325Z,101253.84
2023-04-09T04:00:20.702Z,101253.78
2023-04-09T04:02:51.926Z,101248.81
2023-04-09T04:05:24.260Z,101248.56
2023-04-09T04:07:52.253Z,101252.31
2023-04-09T04:10:20.845Z,101254.84
2023-04-09T04:12:48.479Z,101259.97
2023-04-09T04:15:16.417Z,101263.84
2023-04-09T04:17:44.553Z,101273.41
2023-04-09T04:20:12.938Z,101261.09
2023-04-09T04:22:42.557Z,101261.88
2023-04-09T04:25:10.736Z,101262.22
2023-04-09T04:27:41.931Z,101268.41
2023-04-09T04:30:10.582Z,101268.41
2023-04-09T04:32:38.742Z,101263.06
2023-04-09T04:35:07.226Z,101271.78
2023-04-09T04:37:36.025Z,101271.56
2023-04-09T04:40:06.588Z,101275.78
2023-04-09T04:42:35.343Z,101278.44
2023-04-09T04:45:04.655Z,101286.38
2023-04-09T04:47:32.683Z,101286.44
2023-04-09T04:50:01.313Z,101282.78
2023-04-09T04:52:30.306Z,101289.03
2023-04-09T04:54:58.185Z,101281.97
2023-04-09T04:57:25.765Z,101278.53
2023-04-09T04:59:53.971Z,101284.16
2023-04-09T05:02:21.834Z,101285.53
2023-04-09T05:04:50.311Z,101237.53
2023-04-09T05:07:18.254Z,101282.94
2023-04-09T05:09:46.450Z,101244.66
2023-04-09T05:12:15.244Z,101287.31
2023-04-09T05:14:42.979Z,101286.84
2023-04-09T05:17:10.434Z,101287.53
2023-04-09T05:19:39.324Z,101288.09
2023-04-09T05:22:07.813Z,101290.44
2023-04-09T05:24:35.230Z,101292.69
2023-04-09T05:27:03.405Z,101280.41
2023-04-09T05:29:31.281Z,101299.25
2023-04-09T05:31:59.668Z,101303.63
2023-04-09T05:34:27.679Z,101292.56
2023-04-09T05:36:55.768Z,101296.09
2023-04-09T05:39:23.777Z,101252.19
2023-04-09T05:41:52.607Z,101263.03
2023-04-09T05:44:21.660Z,101301.37
2023-04-09T05:46:49.426Z,101311.50
2023-04-09T05:49:17.820Z,101308.06
2023-04-09T05:51:46.641Z,101314.47
2023-04-09T05:54:16.594Z,101309.09
2023-04-09T05:56:44.318Z,101327.00
2023-04-09T05:59:12.651Z,101305.09
2023-04-09T06:01:40.104Z,101315.72
2023-04-09T06:04:07.938Z,101317.44
2023-04-09T06:06:37.847Z,101322.84
2023-04-09T06:09:05.436Z,101272.34
2023-04-09T06:11:34.341Z,101301.66
2023-04-09T06:14:02.192Z,101266.19
2023-04-09T06:16:29.655Z,101311.94
2023-04-09T06:18:57.571Z,101277.84
2023-04-09T06:21:25.270Z,101269.84
2023-04-09T06:23:53.969Z,101320.34
2023-04-09T06:26:21.975Z,101272.72
2023-04-09T06:28:49.490Z,101313.84
2023-04-09T06:31:17.053Z,101317.91
2023-04-09T06:33:44.941Z,101313.97
2023-04-09T06:36:12.434Z,101277.09
2023-04-09T06:38:39.936Z,101318.56
2023-04-09T06:41:08.573Z,101324.19
2023-04-09T06:43:37.460Z,101318.81
2023-04-09T06:46:05.003Z,101316.91
2023-04-09T06:48:33.348Z,101324.50
2023-04-09T06:51:01.010Z,101319.62
2023-04-09T06:53:28.865Z,101323.00
2023-04-09T06:55:57.280Z,101320.84
2023-04-09T06:58:24.746Z,101334.72
2023-04-09T07:00:52.315Z,101336.47
2023-04-09T07:03:20.413Z,101332.56
2023-04-09T07:05:48.625Z,101337.38
2023-04-09T07:08:16.505Z,101346.03
2023-04-09T07:10:44.588Z,101338.78
2023-04-09T07:13:12.353Z,101340.81
2023-04-09T07:15:41.704Z,101332.19
2023-04-09T07:18:11.053Z,101341.72
2023-04-09T07:20:38.618Z,101300.59
2023-04-09T07:23:06.060Z,101340.28
2023-04-09T07:25:34.046Z,101345.94
2023-04-09T07:28:01.777Z,101347.97
2023-04-09T07:30:29.292Z,101352.53
2023-04-09T07:32:57.220Z,101351.97
2023-04-09T07:35:24.803Z,101360.03
2023-04-09T07:37:52.374Z,101359.03
2023-04-09T07:40:20.423Z,101360.28
2023-04-09T07:42:48.576Z,101359.59
2023-04-09T07:45:17.223Z,101353.69
2023-04-09T07:47:45.404Z,101363.41
2023-04-09T07:50:13.063Z,101312.41
2023-04-09T07:52:40.922Z,101358.66
2023-04-09T07:55:10.114Z,101360.13
2023-04-09T07:57:37.638Z,101358.72
2023-04-09T08:00:06.851Z,101368.69
2023-04-09T08:02:40.778Z,101368.09
2023-04-09T08:05:09.497Z,101334.34
2023-04-09T08:07:37.008Z,101369.72
2023-04-09T08:10:06.837Z,101376.78
2023-04-09T08:12:34.688Z,101364.44
2023-04-09T08:15:03.801Z,101326.50
2023-04-09T08:17:31.681Z,101376.16
2023-04-09T08:19:59.575Z,101374.78
2023-04-09T08:22:27.279Z,101381.72
2023-04-09T08:24:57.343Z,101359.09
2023-04-09T08:27:25.316Z,101385.72
2023-04-09T08:29:52.887Z,101376.34
2023-04-09T08:32:21.535Z,101384.56
2023-04-09T08:34:49.298Z,101386.66
2023-04-09T08:37:20.423Z,101367.94
2023-04-09T08:39:47.917Z,101378.06
2023-04-09T08:42:16.290Z,101378.16
2023-04-09T08:44:44.386Z,101379.97
2023-04-09T08:47:12.708Z,101384.50
2023-04-09T08:49:41.359Z,101382.44
2023-04-09T08:52:09.293Z,101381.97
2023-04-09T08:54:36.809Z,101391.34
2023-04-09T08:57:06.335Z,101380.88
2023-04-09T08:59:37.906Z,101387.66
2023-04-09T09:02:10.621Z,101381.31
2023-04-09T09:04:49.466Z,101387.34
2023-04-09T09:07:17.772Z,101394.59
2023-04-09T09:09:53.294Z,101390.25
2023-04-09T09:12:41.605Z,101392.34
2023-04-09T09:15:30.986Z,101390.75
2023-04-09T09:18:00.710Z,101393.25
2023-04-09T09:20:29.246Z,101389.63
2023-04-09T09:22:57.108Z,101394.81
2023-04-09T09:25:26.467Z,101388.19
2023-04-09T09:27:54.814Z,101386.78
2023-04-09T09:30:24.661Z,101386.13
2023-04-09T09:33:05.646Z,101386.88
2023-04-09T09:35:50.119Z,101378.28
2023-04-09T09:38:18.421Z,101379.13
2023-04-09T09:40:47.213Z,101381.25
2023-04-09T09:43:14.881Z,101380.91
2023-04-09T09:45:44.056Z,101384.78
2023-04-09T09:48:15.507Z,101372.56
2023-04-09T09:50:45.344Z,101378.88
2023-04-09T09:53:17.469Z,101376.00
2023-04-09T09:55:49.502Z,101329.94
2023-04-09T09:58:23.569Z,101375.81
2023-04-09T10:00:52.777Z,101369.44
2023-04-09T10:03:27.632Z,101378.03
2023-04-09T10:05:56.489Z,101379.81
2023-04-09T10:08:24.552Z,101367.28
2023-04-09T10:10:52.886Z,101377.19
2023-04-09T10:13:29.682Z,101372.84
2023-04-09T10:15:58.815Z,101335.44
2023-04-09T10:18:26.762Z,101377.31
2023-04-09T10:21:01.151Z,101374.59
2023-04-09T10:23:39.136Z,101365.75
2023-04-09T10:26:06.813Z,101368.25
2023-04-09T10:28:37.424Z,101328.81
2023-04-09T10:31:06.919Z,101366.94
2023-04-09T10:33:37.433Z,101361.97
2023-04-09T10:36:09.768Z,101371.69
2023-04-09T10:38:38.860Z,101368.22
2023-04-09T10:41:24.444Z,101359.28
2023-04-09T10:43:52.291Z,101360.47
2023-04-09T10:46:27.149Z,101357.59
2023-04-09T10:49:18.121Z,101361.03
2023-04-09T10:52:02.393Z,101357.69
2023-04-09T10:54:33.245Z,101358.00
2023-04-09T10:57:14.992Z,101365.19
2023-04-09T10:59:48.256Z,101356.22
2023-04-09T11:02:18.647Z,101354.28
2023-04-09T11:05:06.833Z,101313.94
2023-04-09T11:07:40.613Z,101358.31
2023-04-09T11:10:09.398Z,101314.31
2023-04-09T11:12:37.174Z,101361.97
2023-04-09T11:15:04.882Z,101352.94
2023-04-09T11:17:36.701Z,101355.72
2023-04-09T11:20:04.672Z,101350.41
2023-04-09T11:22:33.541Z,101355.22
2023-04-09T11:25:01.307Z,101355.37
2023-04-09T11:27:28.775Z,101350.72
2023-04-09T11:29:59.816Z,101354.66
2023-04-09T11:32:31.154Z,101354.25
2023-04-09T11:34:58.920Z,101348.25
2023-04-09T11:37:26.403Z,101349.25
2023-04-09T11:39:56.795Z,101347.19
2023-04-09T11:42:28.359Z,101349.72
2023-04-09T11:44:55.964Z,101315.22
2023-04-09T11:47:24.177Z,101354.91
2023-04-09T11:49:52.091Z,101347.41
2023-04-09T11:52:19.716Z,101361.09
2023-04-09T11:54:50.332Z,101349.75
2023-04-09T11:57:18.044Z,101351.66
2023-04-09T11:59:45.729Z,101317.00
2023-04-09T12:02:18.715Z,101359.41
2023-04-09T12:04:51.176Z,101353.09
2023-04-09T12:07:18.676Z,101355.31
2023-04-09T12:09:48.731Z,101361.47
2023-04-09T12:12:20.510Z,101356.91
2023-04-09T12:14:48.010Z,101351.91
2023-04-09T12:17:15.951Z,101363.03
2023-04-09T12:19:43.517Z,101352.78
2023-04-09T12:22:11.067Z,101357.34
2023-04-09T12:24:38.830Z,101318.66
2023-04-09T12:27:06.713Z,101350.84
2023-04-09T12:29:34.297Z,101352.66
2023-04-09T12:32:02.301Z,101305.16
2023-04-09T12:34:29.903Z,101354.22
2023-04-09T12:36:57.277Z,101346.09
2023-04-09T12:39:25.260Z,101346.34
2023-04-09T12:41:54.505Z,101343.56
2023-04-09T12:44:22.023Z,101346.53
2023-04-09T12:46:49.776Z,101347.75
2023-04-09T12:49:17.330Z,101342.72
2023-04-09T12:51:44.803Z,101346.19
2023-04-09T12:54:12.496Z,101333.50
2023-04-09T12:56:40.009Z,101344.94
2023-04-09T12:59:07.849Z,101338.28
2023-04-09T13:01:36.118Z,101340.19
2023-04-09T13:04:04.108Z,101341.19
2023-04-09T13:06:31.995Z,101332.34
2023-04-09T13:09:04.771Z,101334.09
2023-04-09T13:11:32.402Z,101322.44
2023-04-09T13:14:00.533Z,101326.66
2023-04-09T13:16:28.538Z,101335.00
2023-04-09T13:18:56.032Z,101326.66
2023-04-09T13:21:23.968Z,101320.94
2023-04-09T13:23:52.043Z,101325.72
2023-04-09T13:26:19.481Z,101318.97
2023-04-09T13:28:47.637Z,101320.28
2023-04-09T13:31:15.862Z,101278.69
2023-04-09T13:33:43.379Z,101271.84
2023-04-09T13:36:12.190Z,101316.34
2023-04-09T13:38:40.032Z,101311.47
2023-04-09T13:41:07.775Z,101313.72
2023-04-09T13:43:35.859Z,101315.88
2023-04-09T13:46:04.926Z,101305.66
2023-04-09T13:48:32.498Z,101315.66
2023-04-09T13:51:00.617Z,101309.47
2023-04-09T13:53:28.326Z,101301.72
2023-04-09T13:55:55.812Z,101301.16
2023-04-09T13:58:23.541Z,101302.59
2023-04-09T14:00:51.215Z,101296.62
2023-04-09T14:03:19.203Z,101251.44
2023-04-09T14:05:46.739Z,101238.22
2023-04-09T14:08:14.238Z,101286.56
2023-04-09T14:10:42.282Z,101285.00
2023-04-09T14:13:11.988Z,101283.97
2023-04-09T14:15:39.485Z,101278.41
2023-04-09T14:18:07.567Z,101282.31
2023-04-09T14:20:35.549Z,101231.72
2023-04-09T14:23:03.165Z,101254.97
2023-04-09T14:25:30.935Z,101275.09
2023-04-09T14:27:59.088Z,101272.91
2023-04-09T14:30:26.642Z,101275.50
2023-04-09T14:32:54.794Z,101268.78
2023-04-09T14:35:22.377Z,101237.81
2023-04-09T14:37:50.434Z,101261.72
2023-04-09T14:40:18.279Z,101260.84
2023-04-09T14:42:45.894Z,101265.22
2023-04-09T14:45:13.412Z,101256.69
2023-04-09T14:47:41.250Z,101257.03
2023-04-09T14:50:10.239Z,101253.50
2023-04-09T14:52:38.113Z,101249.31
2023-04-09T14:55:09.131Z,101245.97
2023-04-09T14:57:36.703Z,101238.72
2023-04-09T15:00:04.555Z,101233.66
2023-04-09T15:02:32.818Z,101193.44
2023-04-09T15:05:01.132Z,101240.19
2023-04-09T15:07:29.086Z,101240.84
2023-04-09T15:09:59.637Z,101221.31
2023-04-09T15:12:36.224Z,101235.00
2023-04-09T15:15:08.450Z,101233.47
2023-04-09T15:17:36.571Z,101237.81
2023-04-09T15:20:04.812Z,101194.88
2023-04-09T15:22:32.574Z,101244.63
2023-04-09T15:25:00.100Z,101240.34
2023-04-09T15:27:27.811Z,101242.00
2023-04-09T15:29:55.676Z,101242.09
2023-04-09T15:32:23.387Z,101244.09
2023-04-09T15:34:51.170Z,101194.16
2023-04-09T15:37:18.576Z,101232.59
2023-04-09T15:39:46.834Z,101251.41
2023-04-09T15:42:20.240Z,101239.34
2023-04-09T15:44:47.720Z,101258.78
2023-04-09T15:47:15.659Z,101245.66
2023-04-09T15:49:43.111Z,101229.06
2023-04-09T15:52:10.810Z,101251.19
2023-04-09T15:54:38.597Z,101241.81
2023-04-09T15:57:06.038Z,101240.81
2023-04-09T15:59:33.721Z,101245.78
2023-04-09T16:02:03.199Z,101243.63
2023-04-09T16:04:31.199Z,101245.84
2023-04-09T16:06:58.813Z,101244.47
2023-04-09T16:09:26.472Z,101242.38
2023-04-09T16:11:54.490Z,101240.13
2023-04-09T16:14:22.149Z,101234.88
2023-04-09T16:16:50.136Z,101191.25
2023-04-09T16:19:18.087Z,101236.25
2023-04-09T16:21:45.703Z,101235.03
2023-04-09T16:24:14.317Z,101229.87
2023-04-09T16:26:43.482Z,101228.47
2023-04-09T16:29:11.599Z,101238.03
2023-04-09T16:31:42.215Z,101224.19
2023-04-09T16:34:10.062Z,101237.69
2023-04-09T16:36:37.588Z,101240.44
2023-04-09T16:39:05.389Z,101235.72
2023-04-09T16:41:34.934Z,101247.53
2023-04-09T16:44:04.376Z,101236.78
2023-04-09T16:46:31.930Z,101248.59
2023-04-09T16:48:59.626Z,101244.41
2023-04-09T16:51:27.413Z,101246.87
2023-04-09T16:53:54.827Z,101243.00
2023-04-09T16:56:22.560Z,101207.91
2023-04-09T16:58:50.152Z,101194.38
2023-04-09T17:01:17.949Z,101243.22
2023-04-09T17:03:49.168Z,101242.41
2023-04-09T17:06:17.025Z,101246.87
2023-04-09T17:08:45.405Z,101243.94
2023-04-09T17:11:18.010Z,101201.34
2023-04-09T17:13:46.295Z,101253.16
2023-04-09T17:16:14.379Z,101204.84
2023-04-09T17:18:41.831Z,101248.88
2023-04-09T17:21:09.291Z,101253.00
2023-04-09T17:23:37.911Z,101249.22
2023-04-09T17:26:05.758Z,101250.59
2023-04-09T17:28:33.357Z,101248.50
2023-04-09T17:31:01.645Z,101251.53
2023-04-09T17:33:29.169Z,101199.53
2023-04-09T17:35:57.734Z,101248.47
2023-04-09T17:38:27.031Z,101261.19
2023-04-09T17:40:54.567Z,101208.81
2023-04-09T17:43:22.182Z,101262.28
2023-04-09T17:45:49.936Z,101261.69
2023-04-09T17:48:17.927Z,101260.53
2023-04-09T17:50:45.664Z,101271.41
2023-04-09T17:53:13.521Z,101221.16
2023-04-09T17:55:50.909Z,101274.63
2023-04-09T17:58:19.176Z,101276.63
2023-04-09T18:00:46.659Z,101274.31
2023-04-09T18:03:15.796Z,101280.59
2023-04-09T18:05:43.696Z,101282.66
2023-04-09T18:08:11.503Z,101281.19
2023-04-09T18:10:39.265Z,101283.28
2023-04-09T18:13:06.703Z,101253.00
2023-04-09T18:15:34.203Z,101292.06
2023-04-09T18:18:02.318Z,101289.75
2023-04-09T18:20:29.936Z,101297.87
2023-04-09T18:22:57.556Z,101294.53
2023-04-09T18:25:25.537Z,101294.94
2023-04-09T18:27:53.131Z,101292.88
2023-04-09T18:30:20.757Z,101300.69
2023-04-09T18:32:48.673Z,101303.16
2023-04-09T18:35:17.383Z,101313.72
2023-04-09T18:37:45.389Z,101265.19
2023-04-09T18:40:15.612Z,101313.47
2023-04-09T18:42:43.390Z,101312.81
2023-04-09T18:45:11.545Z,101312.34
2023-04-09T18:47:40.460Z,101266.19
2023-04-09T18:50:08.427Z,101322.13
2023-04-09T18:52:38.899Z,101309.81
2023-04-09T18:55:06.921Z,101314.28
2023-04-09T18:57:34.499Z,101312.03
2023-04-09T19:00:03.878Z,101316.91
2023-04-09T19:02:32.251Z,101312.59
2023-04-09T19:05:00.340Z,101320.16
2023-04-09T19:07:27.885Z,101326.66
2023-04-09T19:09:56.497Z,101323.75
2023-04-09T19:12:25.004Z,101324.97
2023-04-09T19:14:53.751Z,101327.09
2023-04-09T19:17:22.419Z,101323.09
2023-04-09T19:19:50.191Z,101313.09
2023-04-09T19:22:17.736Z,101328.50
2023-04-09T19:24:45.602Z,101330.25
2023-04-09T19:27:14.078Z,101330.72
2023-04-09T19:29:41.892Z,101277.22
2023-04-09T19:32:12.808Z,101323.38
2023-04-09T19:34:40.425Z,101330.22
2023-04-09T19:37:07.882Z,101329.78
2023-04-09T19:39:35.764Z,101333.50
2023-04-09T19:42:03.410Z,101329.38
2023-04-09T19:44:31.034Z,101342.88
2023-04-09T19:46:58.729Z,101334.94
2023-04-09T19:49:27.239Z,101317.00
2023-04-09T19:51:54.751Z,101331.06
2023-04-09T19:54:23.018Z,101324.69
2023-04-09T19:56:50.464Z,101334.97
2023-04-09T19:59:17.976Z,101333.28
2023-04-09T20:01:45.947Z,101326.97
2023-04-09T20:04:13.909Z,101283.06
2023-04-09T20:06:43.099Z,101323.34
2023-04-09T20:09:12.458Z,101321.94
2023-04-09T20:11:42.129Z,101323.62
2023-04-09T20:14:12.170Z,101325.56
2023-04-09T20:16:39.982Z,101278.03
2023-04-09T20:19:07.880Z,101332.06
2023-04-09T20:21:35.866Z,101325.66
2023-04-09T20:24:03.952Z,101326.62
2023-04-09T20:26:31.502Z,101305.44
2023-04-09T20:28:59.049Z,101322.09
2023-04-09T20:31:27.589Z,101328.25
2023-04-09T20:33:55.748Z,101323.12
2023-04-09T20:36:23.311Z,101324.97
2023-04-09T20:38:51.119Z,101324.87
2023-04-09T20:41:18.810Z,101319.50
2023-04-09T20:43:46.526Z,101321.09
2023-04-09T20:46:14.426Z,101319.59
2023-04-09T20:48:41.983Z,101319.75
2023-04-09T20:51:13.467Z,101318.16
2023-04-09T20:53:41.281Z,101319.94
2023-04-09T20:56:09.303Z,101326.91
2023-04-09T20:58:37.272Z,101319.94
2023-04-09T21:01:07.603Z,101300.84
2023-04-09T21:03:40.023Z,101326.22
2023-04-09T21:06:08.718Z,101328.09
2023-04-09T21:08:36.644Z,101332.63
2023-04-09T21:11:04.492Z,101323.03
2023-04-09T21:13:40.431Z,101269.84
2023-04-09T21:16:14.211Z,101328.75
2023-04-09T21:18:42.406Z,101322.81
2023-04-09T21:21:10.018Z,101320.00
2023-04-09T21:23:37.571Z,101327.75
2023-04-09T21:26:05.473Z,101325.22
2023-04-09T21:28:33.115Z,101324.28
2023-04-09T21:31:00.917Z,101283.31
2023-04-09T21:33:30.012Z,101322.44
2023-04-09T21:35:57.859Z,101318.81
2023-04-09T21:38:26.079Z,101319.75
2023-04-09T21:40:53.836Z,101272.72
2023-04-09T21:43:21.527Z,101325.13
2023-04-09T21:45:48.992Z,101328.00
2023-04-09T21:48:16.831Z,101324.03
2023-04-09T21:50:49.585Z,101326.72
2023-04-09T21:53:17.371Z,101324.22
2023-04-09T21:55:44.849Z,101331.41
2023-04-09T21:58:12.355Z,101271.34
2023-04-09T22:00:40.655Z,101331.94
2023-04-09T22:03:08.836Z,101284.47
2023-04-09T22:05:36.697Z,101280.50
2023-04-09T22:08:04.396Z,101331.31
2023-04-09T22:10:32.266Z,101340.06
2023-04-09T22:12:59.804Z,101340.59
2023-04-09T22:15:27.375Z,101339.25
2023-04-09T22:17:55.069Z,101342.72
2023-04-09T22:20:24.448Z,101349.38
2023-04-09T22:22:53.815Z,101341.34
2023-04-09T22:25:22.246Z,101343.44
2023-04-09T22:27:52.271Z,101341.81
2023-04-09T22:30:21.961Z,101341.13
2023-04-09T22:32:50.087Z,101342.03
2023-04-09T22:35:18.400Z,101340.50
2023-04-09T22:37:47.014Z,101340.00
2023-04-09T22:40:15.639Z,101342.00
2023-04-09T22:42:46.072Z,101287.38
2023-04-09T22:45:14.322Z,101343.66
2023-04-09T22:47:42.084Z,101334.19
2023-04-09T22:50:11.152Z,101339.31
2023-04-09T22:52:38.712Z,101339.00
2023-04-09T22:55:09.976Z,101338.06
2023-04-09T22:57:38.432Z,101332.63
2023-04-09T23:00:08.481Z,101331.87
2023-04-09T23:02:37.051Z,101342.91
2023-04-09T23:05:05.261Z,101333.78
2023-04-09T23:07:33.065Z,101334.94
2023-04-09T23:10:00.664Z,101336.16
2023-04-09T23:12:28.191Z,101301.50
2023-04-09T23:14:55.937Z,101339.41
2023-04-09T23:17:24.529Z,101339.69
2023-04-09T23:19:52.734Z,101334.03
2023-04-09T23:22:20.634Z,101341.00
2023-04-09T23:24:48.083Z,101334.50
2023-04-09T23:27:15.872Z,101303.31
2023-04-09T23:29:44.051Z,101280.56
2023-04-09T23:32:11.932Z,101337.69
2023-04-09T23:34:39.404Z,101337.84
2023-04-09T23:37:07.125Z,101335.78
2023-04-09T23:39:34.651Z,101338.25
2023-04-09T23:42:02.477Z,101325.97
2023-04-09T23:44:31.467Z,101334.69
2023-04-09T23:46:59.633Z,101273.16
2023-04-09T23:49:28.466Z,101333.25
2023-04-09T23:51:56.451Z,101325.13
2023-04-09T23:54:23.878Z,101333.09
2023-04-09T23:56:51.689Z,101319.47
2023-04-09T23:59:19.420Z,101324.59
